createdAt,value
2018-05-27T00:00:33.210Z,260.60
2018-05-27T00:01:33.265Z,259.80
2018-05-27T00:02:33.308Z,282.90
2018-05-27T00:03:33.342Z,281.90
2018-05-27T00:04:33.393Z,258.70
2018-05-27T00:05:33.439Z,273.00
2018-05-27T00:06:33.475Z,335.40
2018-05-27T00:07:33.532Z,293.80
2018-05-27T00:08:33.572Z,268.20
2018-05-27T00:09:33.718Z,309.80
2018-05-27T00:10:33.651Z,275.50
2018-05-27T00:11:33.701Z,332.10
2018-05-27T00:12:33.737Z,310.50
2018-05-27T00:13:33.781Z,283.90
2018-05-27T00:14:33.822Z,295.20
2018-05-27T00:15:33.869Z,272.90
2018-05-27T00:16:34.006Z,274.50
2018-05-27T00:17:33.956Z,266.50
2018-05-27T00:18:34.005Z,282.90
2018-05-27T00:19:34.040Z,268.90
2018-05-27T00:20:34.088Z,285.10
2018-05-27T00:21:34.151Z,303.70
2018-05-27T00:22:34.173Z,356.20
2018-05-27T00:23:34.223Z,310.90
2018-05-27T00:24:34.256Z,394.30
2018-05-27T00:25:34.316Z,331.30
2018-05-27T00:26:34.468Z,290.50
2018-05-27T00:27:34.399Z,288.90
2018-05-27T00:28:34.449Z,299.50
2018-05-27T00:29:34.491Z,308.40
2018-05-27T00:30:34.518Z,381.50
2018-05-27T00:31:34.565Z,239.10
2018-05-27T00:32:34.629Z,265.00
2018-05-27T00:33:34.659Z,296.80
2018-05-27T00:34:34.695Z,287.30
2018-05-27T00:35:34.739Z,345.30
2018-05-27T00:36:34.889Z,308.50
2018-05-27T00:37:34.827Z,265.90
2018-05-27T00:38:34.884Z,264.60
2018-05-27T00:39:34.934Z,352.20
2018-05-27T00:40:34.970Z,338.70
2018-05-27T00:41:35.017Z,338.70
2018-05-27T00:42:35.067Z,612.90
2018-05-27T00:43:35.090Z,278.70
2018-05-27T00:44:35.127Z,268.00
2018-05-27T00:45:35.193Z,292.70
2018-05-27T00:46:35.322Z,441.20
2018-05-27T00:47:35.281Z,253.00
2018-05-27T00:48:35.311Z,290.10
2018-05-27T00:49:35.359Z,500.30
2018-05-27T00:50:35.406Z,413.40
2018-05-27T00:51:35.434Z,288.90
2018-05-27T00:52:35.604Z,269.10
2018-05-27T00:53:35.525Z,342.70
2018-05-27T00:54:35.577Z,281.10
2018-05-27T00:55:35.609Z,265.00
2018-05-27T00:56:35.647Z,346.60
2018-05-27T00:57:35.695Z,263.20
2018-05-27T00:58:35.758Z,338.40
2018-05-27T00:59:35.779Z,303.40
2018-05-27T01:00:35.836Z,401.00
2018-05-27T01:01:35.879Z,419.10
2018-05-27T01:02:36.023Z,303.70
2018-05-27T01:03:35.963Z,365.10
2018-05-27T01:04:36.022Z,343.70
2018-05-27T01:05:36.036Z,303.40
2018-05-27T01:06:36.083Z,250.60
2018-05-27T01:07:36.132Z,255.90
2018-05-27T01:08:36.379Z,267.80
2018-05-27T01:09:36.229Z,268.60
2018-05-27T01:10:36.265Z,293.30
2018-05-27T01:11:36.311Z,252.10
2018-05-27T01:12:36.362Z,253.20
2018-05-27T01:13:36.395Z,299.00
2018-05-27T01:14:36.547Z,250.50
2018-05-27T01:15:36.468Z,281.10
2018-05-27T01:16:36.511Z,394.60
2018-05-27T01:17:36.581Z,260.50
2018-05-27T01:18:36.607Z,359.70
2018-05-27T01:19:36.646Z,287.40
2018-05-27T01:20:36.705Z,271.20
2018-05-27T01:21:36.733Z,269.20
2018-05-27T01:22:36.782Z,234.60
2018-05-27T01:23:36.813Z,323.00
2018-05-27T01:24:36.975Z,286.20
2018-05-27T01:25:36.915Z,404.70
2018-05-27T01:26:36.953Z,248.80
2018-05-27T01:27:36.986Z,271.70
2018-05-27T01:28:37.025Z,247.30
2018-05-27T01:29:37.077Z,273.10
2018-05-27T01:30:37.328Z,285.90
2018-05-27T01:31:37.174Z,323.50
2018-05-27T01:32:37.223Z,283.30
2018-05-27T01:33:37.256Z,244.60
2018-05-27T01:34:37.299Z,263.00
2018-05-27T01:35:37.448Z,279.30
2018-05-27T01:36:37.385Z,246.80
2018-05-27T01:37:37.414Z,241.30
2018-05-27T01:38:37.665Z,253.10
2018-05-27T01:39:37.511Z,269.80
2018-05-27T01:40:37.559Z,268.10
2018-05-27T01:41:37.601Z,263.70
2018-05-27T01:42:37.631Z,257.80
2018-05-27T01:43:37.683Z,258.10
2018-05-27T01:44:37.722Z,263.40
2018-05-27T01:45:37.871Z,289.60
2018-05-27T01:46:37.817Z,251.60
2018-05-27T01:47:37.850Z,323.00
2018-05-27T01:48:37.884Z,257.30
2018-05-27T01:49:37.939Z,284.10
2018-05-27T01:50:37.977Z,278.80
2018-05-27T01:51:38.015Z,249.20
2018-05-27T01:52:38.074Z,284.10
2018-05-27T01:53:38.110Z,345.30
2018-05-27T01:54:38.145Z,263.80
2018-05-27T01:55:38.206Z,277.50
2018-05-27T01:56:38.448Z,357.80
2018-05-27T01:57:38.282Z,409.00
2018-05-27T01:58:38.335Z,450.30
2018-05-27T01:59:38.368Z,270.50
2018-05-27T02:00:38.414Z,376.00
2018-05-27T02:01:38.545Z,359.50
2018-05-27T02:02:38.710Z,253.80
2018-05-27T02:03:38.594Z,306.60
2018-05-27T02:04:38.637Z,312.60
2018-05-27T02:05:38.683Z,291.30
2018-05-27T02:06:38.712Z,383.10
2018-05-27T02:07:38.964Z,294.20
2018-05-27T02:08:38.897Z,264.90
2018-05-27T02:09:38.804Z,279.80
2018-05-27T02:10:38.838Z,300.60
2018-05-27T02:11:38.898Z,515.60
2018-05-27T02:12:38.924Z,600.90
2018-05-27T02:13:39.264Z,267.70
2018-05-27T02:14:39.203Z,273.10
2018-05-27T02:15:39.105Z,269.70
2018-05-27T02:16:39.150Z,282.70
2018-05-27T02:17:39.196Z,265.70
2018-05-27T02:18:39.197Z,317.60
2018-05-27T02:19:39.425Z,328.60
2018-05-27T02:20:39.623Z,262.10
2018-05-27T02:21:39.309Z,268.60
2018-05-27T02:22:39.416Z,275.00
2018-05-27T02:23:39.389Z,287.30
2018-05-27T02:24:39.497Z,249.80
2018-05-27T02:25:39.623Z,293.30
2018-05-27T02:26:39.730Z,356.00
2018-05-27T02:27:39.613Z,473.60
2018-05-27T02:28:39.659Z,271.70
2018-05-27T02:29:39.646Z,408.00
2018-05-27T02:30:39.706Z,327.90
2018-05-27T02:31:39.983Z,300.60
2018-05-27T02:32:39.787Z,715.90
2018-05-27T02:33:39.821Z,357.80
2018-05-27T02:34:39.869Z,293.40
2018-05-27T02:35:39.899Z,334.10
2018-05-27T02:36:40.147Z,363.10
2018-05-27T02:37:40.001Z,297.50
2018-05-27T02:38:40.047Z,315.40
2018-05-27T02:39:40.073Z,233.00
2018-05-27T02:40:40.117Z,279.40
2018-05-27T02:41:40.166Z,444.10
2018-05-27T02:42:40.304Z,282.20
2018-05-27T02:43:40.264Z,439.20
2018-05-27T02:44:40.318Z,359.10
2018-05-27T02:45:40.346Z,428.10
2018-05-27T02:46:40.377Z,502.50
2018-05-27T02:47:40.624Z,440.10
2018-05-27T02:48:40.483Z,373.70
2018-05-27T02:49:40.524Z,416.70
2018-05-27T02:50:40.566Z,405.00
2018-05-27T02:51:40.610Z,530.40
2018-05-27T02:52:40.650Z,399.70
2018-05-27T02:53:40.683Z,412.20
2018-05-27T02:54:40.735Z,416.90
2018-05-27T02:55:40.767Z,403.40
2018-05-27T02:56:40.813Z,526.90
2018-05-27T02:57:41.045Z,299.60
2018-05-27T02:58:40.894Z,340.00
2018-05-27T02:59:40.942Z,302.20
2018-05-27T03:00:40.993Z,288.90
2018-05-27T03:01:41.039Z,351.50
2018-05-27T03:02:41.060Z,246.40
2018-05-27T03:03:41.130Z,282.20
2018-05-27T03:04:41.154Z,294.70
2018-05-27T03:05:41.200Z,189.50
2018-05-27T03:06:41.257Z,493.20
2018-05-27T03:07:41.482Z,545.50
2018-05-27T03:08:41.421Z,453.00
2018-05-27T03:09:41.379Z,277.70
2018-05-27T03:10:41.421Z,449.30
2018-05-27T03:11:41.462Z,576.40
2018-05-27T03:12:41.505Z,518.50
2018-05-27T03:13:41.538Z,421.00
2018-05-27T03:14:41.788Z,498.60
2018-05-27T03:15:41.639Z,397.30
2018-05-27T03:16:41.667Z,229.50
2018-05-27T03:17:41.706Z,325.90
2018-05-27T03:18:41.756Z,313.70
2018-05-27T03:19:41.908Z,211.40
2018-05-27T03:20:41.847Z,247.10
2018-05-27T03:21:41.879Z,259.00
2018-05-27T03:22:41.937Z,296.30
2018-05-27T03:23:41.972Z,459.10
2018-05-27T03:24:42.021Z,348.60
2018-05-27T03:25:42.062Z,300.10
2018-05-27T03:26:42.108Z,318.20
2018-05-27T03:27:42.148Z,466.90
2018-05-27T03:28:42.176Z,466.40
2018-05-27T03:29:42.454Z,555.40
2018-05-27T03:30:42.374Z,524.50
2018-05-27T03:31:42.314Z,546.00
2018-05-27T03:32:42.362Z,528.30
2018-05-27T03:33:42.407Z,422.80
2018-05-27T03:34:42.440Z,588.70
2018-05-27T03:35:42.487Z,522.10
2018-05-27T03:36:42.736Z,448.30
2018-05-27T03:37:42.582Z,448.40
2018-05-27T03:38:42.603Z,529.20
2018-05-27T03:39:42.672Z,426.30
2018-05-27T03:40:42.709Z,695.50
2018-05-27T03:41:42.840Z,496.20
2018-05-27T03:42:42.774Z,454.90
2018-05-27T03:43:42.838Z,448.80
2018-05-27T03:44:42.871Z,346.40
2018-05-27T03:45:42.920Z,397.10
2018-05-27T03:46:42.957Z,400.20
2018-05-27T03:47:43.003Z,327.50
2018-05-27T03:48:43.154Z,440.40
2018-05-27T03:49:43.079Z,428.60
2018-05-27T03:50:43.117Z,426.10
2018-05-27T03:51:43.178Z,381.10
2018-05-27T03:52:43.204Z,409.00
2018-05-27T03:53:43.467Z,370.60
2018-05-27T03:54:43.305Z,426.00
2018-05-27T03:55:43.333Z,457.30
2018-05-27T03:56:43.389Z,366.90
2018-05-27T03:57:43.444Z,437.00
2018-05-27T03:58:43.459Z,489.50
2018-05-27T03:59:43.720Z,494.70
2018-05-27T04:00:43.564Z,484.80
2018-05-27T04:01:43.621Z,488.90
2018-05-27T04:02:43.648Z,502.10
2018-05-27T04:03:43.682Z,520.80
2018-05-27T04:04:43.733Z,531.60
2018-05-27T04:05:43.779Z,539.40
2018-05-27T04:06:43.816Z,536.80
2018-05-27T04:07:43.903Z,530.30
2018-05-27T04:08:43.913Z,542.00
2018-05-27T04:09:44.143Z,543.10
2018-05-27T04:10:43.975Z,562.20
2018-05-27T04:11:44.035Z,547.00
2018-05-27T04:12:44.066Z,575.00
2018-05-27T04:13:44.118Z,585.20
2018-05-27T04:14:44.168Z,581.70
2018-05-27T04:15:44.205Z,550.70
2018-05-27T04:16:44.245Z,576.60
2018-05-27T04:17:44.287Z,571.30
2018-05-27T04:18:44.316Z,601.70
2018-05-27T04:19:44.563Z,574.30
2018-05-27T04:20:44.415Z,534.20
2018-05-27T04:21:44.449Z,557.30
2018-05-27T04:22:44.505Z,541.50
2018-05-27T04:23:44.529Z,545.50
2018-05-27T04:24:44.779Z,530.00
2018-05-27T04:25:44.619Z,567.40
2018-05-27T04:26:44.664Z,545.00
2018-05-27T04:27:44.703Z,602.40
2018-05-27T04:28:44.744Z,571.90
2018-05-27T04:29:44.799Z,585.50
2018-05-27T04:30:44.847Z,576.60
2018-05-27T04:31:44.891Z,556.30
2018-05-27T04:32:44.923Z,608.10
2018-05-27T04:33:44.969Z,637.70
2018-05-27T04:34:45.219Z,608.40
2018-05-27T04:35:45.259Z,650.10
2018-05-27T04:36:45.086Z,622.40
2018-05-27T04:37:45.125Z,619.50
2018-05-27T04:38:45.190Z,646.60
2018-05-27T04:39:45.222Z,659.60
2018-05-27T04:40:45.269Z,701.60
2018-05-27T04:41:45.510Z,725.50
2018-05-27T04:42:45.344Z,613.60
2018-05-27T04:43:45.388Z,627.10
2018-05-27T04:44:45.439Z,598.80
2018-05-27T04:45:45.490Z,583.30
2018-05-27T04:46:45.624Z,539.50
2018-05-27T04:47:45.552Z,556.80
2018-05-27T04:48:45.606Z,522.20
2018-05-27T04:49:45.650Z,557.60
2018-05-27T04:50:45.697Z,542.20
2018-05-27T04:51:45.723Z,521.30
2018-05-27T04:52:45.976Z,550.00
2018-05-27T04:53:45.826Z,556.50
2018-05-27T04:54:45.858Z,513.50
2018-05-27T04:55:45.902Z,565.50
2018-05-27T04:56:45.937Z,527.80
2018-05-27T04:57:45.978Z,553.40
2018-05-27T04:58:46.133Z,530.70
2018-05-27T04:59:46.081Z,522.50
2018-05-27T05:00:46.124Z,529.50
2018-05-27T05:01:46.156Z,480.40
2018-05-27T05:02:46.199Z,523.90
2018-05-27T05:03:46.246Z,536.40
2018-05-27T05:04:46.488Z,553.10
2018-05-27T05:05:46.336Z,569.10
2018-05-27T05:06:46.364Z,556.10
2018-05-27T05:07:46.423Z,558.30
2018-05-27T05:08:46.445Z,555.70
2018-05-27T05:09:46.511Z,597.50
2018-05-27T05:10:46.628Z,608.20
2018-05-27T05:11:46.574Z,605.50
2018-05-27T05:12:46.635Z,606.10
2018-05-27T05:13:46.671Z,620.00
2018-05-27T05:14:46.709Z,602.60
2018-05-27T05:15:46.753Z,640.70
2018-05-27T05:16:46.985Z,651.70
2018-05-27T05:17:46.833Z,662.60
2018-05-27T05:18:46.877Z,665.10
2018-05-27T05:19:46.927Z,669.30
2018-05-27T05:20:46.964Z,654.50
2018-05-27T05:21:47.264Z,659.00
2018-05-27T05:22:47.144Z,624.50
2018-05-27T05:23:47.107Z,666.90
2018-05-27T05:24:47.130Z,641.40
2018-05-27T05:25:47.173Z,621.60
2018-05-27T05:26:47.223Z,633.40
2018-05-27T05:27:47.265Z,626.40
2018-05-27T05:28:47.520Z,668.40
2018-05-27T05:29:47.359Z,653.20
2018-05-27T05:30:47.385Z,602.40
2018-05-27T05:31:47.424Z,623.30
2018-05-27T05:32:47.468Z,651.80
2018-05-27T05:33:47.610Z,646.40
2018-05-27T05:34:47.549Z,674.80
2018-05-27T05:35:47.618Z,673.70
2018-05-27T05:36:47.653Z,690.90
2018-05-27T05:37:47.678Z,635.30
2018-05-27T05:38:47.727Z,681.90
2018-05-27T05:39:47.773Z,665.90
2018-05-27T05:40:47.801Z,653.90
2018-05-27T05:41:47.865Z,675.50
2018-05-27T05:42:47.905Z,720.80
2018-05-27T05:43:48.146Z,640.90
2018-05-27T05:44:47.985Z,602.20
2018-05-27T05:45:48.031Z,631.00
2018-05-27T05:46:48.073Z,708.30
2018-05-27T05:47:48.117Z,656.90
2018-05-27T05:48:48.251Z,602.60
2018-05-27T05:49:48.185Z,623.50
2018-05-27T05:50:48.237Z,608.00
2018-05-27T05:51:48.278Z,620.60
2018-05-27T05:52:48.335Z,586.00
2018-05-27T05:53:48.353Z,665.20
2018-05-27T05:54:48.604Z,587.40
2018-05-27T05:55:48.450Z,606.90
2018-05-27T05:56:48.487Z,659.00
2018-05-27T05:57:48.526Z,699.20
2018-05-27T05:58:48.579Z,635.90
2018-05-27T05:59:48.617Z,511.00
2018-05-27T06:00:48.774Z,747.60
2018-05-27T06:01:48.711Z,565.90
2018-05-27T06:02:48.734Z,728.40
2018-05-27T06:03:48.782Z,696.40
2018-05-27T06:04:48.824Z,621.70
2018-05-27T06:05:48.857Z,631.50
2018-05-27T06:06:49.109Z,667.00
2018-05-27T06:07:48.955Z,644.30
2018-05-27T06:08:48.997Z,660.10
2018-05-27T06:09:49.037Z,635.50
2018-05-27T06:10:49.066Z,560.90
2018-05-27T06:11:49.139Z,719.60
2018-05-27T06:12:49.257Z,651.00
2018-05-27T06:13:49.192Z,626.80
2018-05-27T06:14:49.248Z,655.20
2018-05-27T06:15:49.282Z,624.10
2018-05-27T06:16:49.332Z,625.10
2018-05-27T06:17:49.374Z,703.70
2018-05-27T06:18:49.609Z,615.80
2018-05-27T06:19:49.443Z,566.00
2018-05-27T06:20:49.501Z,661.40
2018-05-27T06:21:49.553Z,649.60
2018-05-27T06:22:49.580Z,623.50
2018-05-27T06:23:49.623Z,649.80
2018-05-27T06:24:49.767Z,654.30
2018-05-27T06:25:49.748Z,664.10
2018-05-27T06:26:49.762Z,647.00
2018-05-27T06:27:49.795Z,655.90
2018-05-27T06:28:49.828Z,664.60
2018-05-27T06:29:49.865Z,645.50
2018-05-27T06:30:50.122Z,671.00
2018-05-27T06:31:49.952Z,617.50
2018-05-27T06:32:50.012Z,530.60
2018-05-27T06:33:50.043Z,710.80
2018-05-27T06:34:50.091Z,627.80
2018-05-27T06:35:50.130Z,641.60
2018-05-27T06:36:50.268Z,591.50
2018-05-27T06:37:50.204Z,677.10
2018-05-27T06:38:50.243Z,670.70
2018-05-27T06:39:50.311Z,721.90
2018-05-27T06:40:50.333Z,687.20
2018-05-27T06:41:50.372Z,682.10
2018-05-27T06:42:50.618Z,671.00
2018-05-27T06:43:50.463Z,627.40
2018-05-27T06:44:50.493Z,740.80
2018-05-27T06:45:50.551Z,615.20
2018-05-27T06:46:50.589Z,620.90
2018-05-27T06:47:50.735Z,621.70
2018-05-27T06:48:50.674Z,597.50
2018-05-27T06:49:50.717Z,697.20
2018-05-27T06:50:50.773Z,625.80
2018-05-27T06:51:50.804Z,653.80
2018-05-27T06:52:50.830Z,681.00
2018-05-27T06:53:51.089Z,687.00
2018-05-27T06:54:50.927Z,644.20
2018-05-27T06:55:50.965Z,621.10
2018-05-27T06:56:51.017Z,731.50
2018-05-27T06:57:51.071Z,624.40
2018-05-27T06:58:51.094Z,713.90
2018-05-27T06:59:51.224Z,659.10
2018-05-27T07:00:51.181Z,667.40
2018-05-27T07:01:51.222Z,603.80
2018-05-27T07:02:51.264Z,704.20
2018-05-27T07:03:51.303Z,588.00
2018-05-27T07:04:51.392Z,694.50
2018-05-27T07:05:51.376Z,690.50
2018-05-27T07:06:51.423Z,682.60
2018-05-27T07:07:51.469Z,545.00
2018-05-27T07:08:51.505Z,573.10
2018-05-27T07:09:51.757Z,657.90
2018-05-27T07:10:51.704Z,660.10
2018-05-27T07:11:51.638Z,699.90
2018-05-27T07:12:51.668Z,694.10
2018-05-27T07:13:51.730Z,613.70
2018-05-27T07:14:51.765Z,712.20
2018-05-27T07:15:51.800Z,710.60
2018-05-27T07:16:52.041Z,665.70
2018-05-27T07:17:51.888Z,706.90
2018-05-27T07:18:51.940Z,685.90
2018-05-27T07:19:51.969Z,695.40
2018-05-27T07:20:52.004Z,701.70
2018-05-27T07:21:52.256Z,717.00
2018-05-27T07:22:52.236Z,726.10
2018-05-27T07:23:52.160Z,680.10
2018-05-27T07:24:52.222Z,682.30
2018-05-27T07:25:52.226Z,700.50
2018-05-27T07:26:52.257Z,704.10
2018-05-27T07:27:52.502Z,692.00
2018-05-27T07:28:52.348Z,702.60
2018-05-27T07:29:52.403Z,779.70
2018-05-27T07:30:52.423Z,698.30
2018-05-27T07:31:52.468Z,674.10
2018-05-27T07:32:52.524Z,672.30
2018-05-27T07:33:52.672Z,696.30
2018-05-27T07:34:52.603Z,668.40
2018-05-27T07:35:52.644Z,697.20
2018-05-27T07:36:52.690Z,708.10
2018-05-27T07:37:52.715Z,790.40
2018-05-27T07:38:52.783Z,718.40
2018-05-27T07:39:52.818Z,681.70
2018-05-27T07:40:52.839Z,760.50
2018-05-27T07:41:52.894Z,711.50
2018-05-27T07:42:52.937Z,740.70
2018-05-27T07:43:53.181Z,711.20
2018-05-27T07:44:53.126Z,694.40
2018-05-27T07:45:53.049Z,667.40
2018-05-27T07:46:53.121Z,693.40
2018-05-27T07:47:53.138Z,709.00
2018-05-27T07:48:53.188Z,692.50
2018-05-27T07:49:53.217Z,663.40
2018-05-27T07:50:53.474Z,643.60
2018-05-27T07:51:53.296Z,676.90
2018-05-27T07:52:53.342Z,693.80
2018-05-27T07:53:53.397Z,685.60
2018-05-27T07:54:53.424Z,686.30
2018-05-27T07:55:53.573Z,674.80
2018-05-27T07:56:53.524Z,514.90
2018-05-27T07:57:53.556Z,767.30
2018-05-27T07:58:53.621Z,825.60
2018-05-27T07:59:53.640Z,749.00
2018-05-27T08:00:53.695Z,656.30
2018-05-27T08:01:53.918Z,726.30
2018-05-27T08:02:53.758Z,672.40
2018-05-27T08:03:53.821Z,889.10
2018-05-27T08:04:53.842Z,1097.10
2018-05-27T08:05:53.896Z,918.00
2018-05-27T08:06:53.933Z,897.40
2018-05-27T08:07:54.066Z,866.60
2018-05-27T08:08:54.031Z,845.10
2018-05-27T08:09:54.054Z,779.50
2018-05-27T08:10:54.109Z,705.20
2018-05-27T08:11:54.145Z,692.60
2018-05-27T08:12:54.384Z,669.20
2018-05-27T08:13:54.242Z,857.10
2018-05-27T08:14:54.275Z,736.00
2018-05-27T08:15:54.301Z,963.60
2018-05-27T08:16:54.359Z,793.80
2018-05-27T08:17:54.393Z,690.40
2018-05-27T08:18:54.523Z,772.00
2018-05-27T08:19:54.508Z,674.20
2018-05-27T08:20:54.522Z,850.40
2018-05-27T08:21:54.562Z,805.20
2018-05-27T08:22:54.600Z,744.60
2018-05-27T08:23:54.831Z,721.70
2018-05-27T08:24:54.673Z,911.90
2018-05-27T08:25:54.727Z,650.80
2018-05-27T08:26:54.763Z,751.50
2018-05-27T08:27:54.814Z,998.40
2018-05-27T08:28:54.859Z,681.70
2018-05-27T08:29:54.991Z,919.20
2018-05-27T08:30:54.946Z,802.50
2018-05-27T08:31:54.970Z,711.90
2018-05-27T08:32:55.013Z,1052.00
2018-05-27T08:33:55.065Z,791.70
2018-05-27T08:34:55.114Z,854.80
2018-05-27T08:35:55.336Z,742.80
2018-05-27T08:36:55.175Z,811.10
2018-05-27T08:37:55.211Z,734.40
2018-05-27T08:38:55.250Z,715.40
2018-05-27T08:39:55.301Z,799.70
2018-05-27T08:40:55.353Z,747.80
2018-05-27T08:41:55.400Z,853.60
2018-05-27T08:42:55.433Z,761.90
2018-05-27T08:43:55.471Z,753.80
2018-05-27T08:44:55.526Z,702.60
2018-05-27T08:45:55.646Z,754.60
2018-05-27T08:46:55.786Z,630.00
2018-05-27T08:47:55.645Z,701.50
2018-05-27T08:48:55.700Z,806.40
2018-05-27T08:49:55.732Z,749.30
2018-05-27T08:50:55.758Z,698.00
2018-05-27T08:51:55.797Z,904.80
2018-05-27T08:52:55.843Z,586.80
2018-05-27T08:53:55.882Z,625.40
2018-05-27T08:54:55.925Z,753.20
2018-05-27T08:55:55.989Z,671.10
2018-05-27T08:56:56.122Z,776.70
2018-05-27T08:57:56.259Z,851.40
2018-05-27T08:58:56.091Z,668.30
2018-05-27T08:59:56.143Z,799.90
2018-05-27T09:00:56.173Z,813.90
2018-05-27T09:01:56.214Z,805.60
2018-05-27T09:02:56.257Z,796.00
2018-05-27T09:03:56.407Z,842.50
2018-05-27T09:04:56.361Z,698.90
2018-05-27T09:05:56.398Z,795.20
2018-05-27T09:06:56.447Z,803.30
2018-05-27T09:07:56.470Z,887.80
2018-05-27T09:08:56.605Z,828.80
2018-05-27T09:09:56.550Z,753.60
2018-05-27T09:10:56.596Z,837.60
2018-05-27T09:11:56.631Z,814.30
2018-05-27T09:12:56.677Z,854.20
2018-05-27T09:13:56.923Z,829.70
2018-05-27T09:14:56.758Z,795.70
2018-05-27T09:15:56.795Z,823.70
2018-05-27T09:16:56.847Z,1044.90
2018-05-27T09:17:56.893Z,918.00
2018-05-27T09:18:56.929Z,831.20
2018-05-27T09:19:57.062Z,806.80
2018-05-27T09:20:57.120Z,930.80
2018-05-27T09:21:57.063Z,702.40
2018-05-27T09:22:57.112Z,842.60
2018-05-27T09:23:57.141Z,784.60
2018-05-27T09:24:57.263Z,793.60
2018-05-27T09:25:57.214Z,797.10
2018-05-27T09:26:57.473Z,809.00
2018-05-27T09:27:57.302Z,839.80
2018-05-27T09:28:57.346Z,729.60
2018-05-27T09:29:57.396Z,839.00
2018-05-27T09:30:57.507Z,892.10
2018-05-27T09:31:57.611Z,790.60
2018-05-27T09:32:57.507Z,790.00
2018-05-27T09:33:57.559Z,777.20
2018-05-27T09:34:57.602Z,784.90
2018-05-27T09:35:57.633Z,792.10
2018-05-27T09:36:57.683Z,744.70
2018-05-27T09:37:57.730Z,826.10
2018-05-27T09:38:57.772Z,816.40
2018-05-27T09:39:57.800Z,785.40
2018-05-27T09:40:57.849Z,796.90
2018-05-27T09:41:58.082Z,849.20
2018-05-27T09:42:58.037Z,782.00
2018-05-27T09:43:57.965Z,753.60
2018-05-27T09:44:58.020Z,792.40
2018-05-27T09:45:58.068Z,737.30
2018-05-27T09:46:58.100Z,784.00
2018-05-27T09:47:58.147Z,663.90
2018-05-27T09:48:58.370Z,796.60
2018-05-27T09:49:58.228Z,862.30
2018-05-27T09:50:58.286Z,580.20
2018-05-27T09:51:58.310Z,745.30
2018-05-27T09:52:58.346Z,804.10
2018-05-27T09:53:58.498Z,714.00
2018-05-27T09:54:58.436Z,779.90
2018-05-27T09:55:58.466Z,796.80
2018-05-27T09:56:58.520Z,739.40
2018-05-27T09:57:58.634Z,776.40
2018-05-27T09:58:58.614Z,701.30
2018-05-27T09:59:58.903Z,741.00
2018-05-27T10:00:58.792Z,819.90
2018-05-27T10:01:58.727Z,740.50
2018-05-27T10:02:58.767Z,703.10
2018-05-27T10:03:58.814Z,771.40
2018-05-27T10:04:58.862Z,774.60
2018-05-27T10:05:58.899Z,834.90
2018-05-27T10:06:59.043Z,781.70
2018-05-27T10:07:58.977Z,782.90
2018-05-27T10:08:59.024Z,776.00
2018-05-27T10:09:59.060Z,755.30
2018-05-27T10:10:59.108Z,765.60
2018-05-27T10:11:59.342Z,775.00
2018-05-27T10:12:59.185Z,702.30
2018-05-27T10:13:59.249Z,734.20
2018-05-27T10:14:59.264Z,854.20
2018-05-27T10:15:59.310Z,744.20
2018-05-27T10:16:59.359Z,787.50
2018-05-27T10:17:59.500Z,778.10
2018-05-27T10:18:59.497Z,758.20
2018-05-27T10:19:59.485Z,744.20
2018-05-27T10:20:59.530Z,768.60
2018-05-27T10:21:59.577Z,781.60
2018-05-27T10:22:59.615Z,831.80
2018-05-27T10:23:59.862Z,830.30
2018-05-27T10:24:59.697Z,756.90
2018-05-27T10:25:59.755Z,797.10
2018-05-27T10:26:59.804Z,710.50
2018-05-27T10:27:59.813Z,684.90
2018-05-27T10:28:59.869Z,722.40
2018-05-27T10:29:59.910Z,671.40
2018-05-27T10:30:59.965Z,749.60
2018-05-27T10:31:59.986Z,733.00
2018-05-27T10:33:00.035Z,669.60
2018-05-27T10:34:00.184Z,602.70
2018-05-27T10:35:00.121Z,702.40
2018-05-27T10:36:00.168Z,709.70
2018-05-27T10:37:00.197Z,721.00
2018-05-27T10:38:00.248Z,668.00
2018-05-27T10:39:00.756Z,764.60
2018-05-27T10:40:00.324Z,649.60
2018-05-27T10:41:00.373Z,560.70
2018-05-27T10:42:00.413Z,671.50
2018-05-27T10:43:00.456Z,671.70
2018-05-27T10:44:00.506Z,707.90
2018-05-27T10:45:00.652Z,691.40
2018-05-27T10:46:00.581Z,599.70
2018-05-27T10:47:00.637Z,734.20
2018-05-27T10:48:00.662Z,700.90
2018-05-27T10:49:00.715Z,747.50
2018-05-27T10:50:00.759Z,508.30
2018-05-27T10:51:01.093Z,845.70
2018-05-27T10:52:00.855Z,752.90
2018-05-27T10:53:00.888Z,757.10
2018-05-27T10:54:00.944Z,780.80
2018-05-27T10:55:00.961Z,765.70
2018-05-27T10:56:01.017Z,913.40
2018-05-27T10:57:01.257Z,724.00
2018-05-27T10:58:01.088Z,624.50
2018-05-27T10:59:01.136Z,626.70
2018-05-27T11:00:01.267Z,482.20
2018-05-27T11:01:01.216Z,624.60
2018-05-27T11:02:01.279Z,695.70
2018-05-27T11:03:01.507Z,703.60
2018-05-27T11:04:01.364Z,710.60
2018-05-27T11:05:01.387Z,765.10
2018-05-27T11:06:01.453Z,690.10
2018-05-27T11:07:01.502Z,794.80
2018-05-27T11:08:01.527Z,712.20
2018-05-27T11:09:01.557Z,525.10
2018-05-27T11:10:01.602Z,598.60
2018-05-27T11:11:01.643Z,616.10
2018-05-27T11:12:01.687Z,703.50
2018-05-27T11:13:01.988Z,696.40
2018-05-27T11:14:01.778Z,659.50
2018-05-27T11:15:01.835Z,614.40
2018-05-27T11:16:01.877Z,547.00
2018-05-27T11:17:01.917Z,559.00
2018-05-27T11:18:01.949Z,556.70
2018-05-27T11:19:02.003Z,578.50
2018-05-27T11:20:02.042Z,535.10
2018-05-27T11:21:02.086Z,569.70
2018-05-27T11:22:02.139Z,533.90
2018-05-27T11:23:02.372Z,572.80
2018-05-27T11:24:02.314Z,629.00
2018-05-27T11:25:02.258Z,518.40
2018-05-27T11:26:02.316Z,508.90
2018-05-27T11:27:02.333Z,545.00
2018-05-27T11:28:02.392Z,469.00
2018-05-27T11:29:02.439Z,611.00
2018-05-27T11:30:02.563Z,754.60
2018-05-27T11:31:02.511Z,455.70
2018-05-27T11:32:02.566Z,605.70
2018-05-27T11:33:02.617Z,508.70
2018-05-27T11:34:02.655Z,535.80
2018-05-27T11:35:02.791Z,569.50
2018-05-27T11:36:02.738Z,520.20
2018-05-27T11:37:02.784Z,592.60
2018-05-27T11:38:02.810Z,535.40
2018-05-27T11:39:02.869Z,517.20
2018-05-27T11:40:02.900Z,562.20
2018-05-27T11:41:02.971Z,550.30
2018-05-27T11:42:02.990Z,524.60
2018-05-27T11:43:03.037Z,588.50
2018-05-27T11:44:03.091Z,533.70
2018-05-27T11:45:03.133Z,528.80
2018-05-27T11:46:04.822Z,538.60
2018-05-27T11:47:03.213Z,551.00
2018-05-27T11:48:03.277Z,551.90
2018-05-27T11:49:03.299Z,605.50
2018-05-27T11:50:03.359Z,610.70
2018-05-27T11:51:03.390Z,570.00
2018-05-27T11:52:03.442Z,549.80
2018-05-27T11:53:03.497Z,565.20
2018-05-27T11:54:03.528Z,565.40
2018-05-27T11:55:03.590Z,573.00
2018-05-27T11:56:03.610Z,591.30
2018-05-27T11:57:03.760Z,589.40
2018-05-27T11:58:03.718Z,592.10
2018-05-27T11:59:03.752Z,645.40
2018-05-27T12:00:03.805Z,641.80
2018-05-27T12:01:03.855Z,626.70
2018-05-27T12:02:04.119Z,604.80
2018-05-27T12:03:03.943Z,577.50
2018-05-27T12:04:03.998Z,601.80
2018-05-27T12:05:04.036Z,594.40
2018-05-27T12:06:04.068Z,590.40
2018-05-27T12:07:04.117Z,597.90
2018-05-27T12:08:04.261Z,577.70
2018-05-27T12:09:04.304Z,602.80
2018-05-27T12:10:04.266Z,582.50
2018-05-27T12:11:04.309Z,574.90
2018-05-27T12:12:04.350Z,613.90
2018-05-27T12:13:04.391Z,615.40
2018-05-27T12:14:04.557Z,652.60
2018-05-27T12:15:04.508Z,765.20
2018-05-27T12:16:04.556Z,677.70
2018-05-27T12:17:04.579Z,703.90
2018-05-27T12:18:04.622Z,679.20
2018-05-27T12:19:04.687Z,614.80
2018-05-27T12:20:04.933Z,616.00
2018-05-27T12:21:04.769Z,611.40
2018-05-27T12:22:04.819Z,611.90
2018-05-27T12:23:04.884Z,607.50
2018-05-27T12:24:04.953Z,606.40
2018-05-27T12:25:05.053Z,1377.10
2018-05-27T12:26:05.018Z,443.90
2018-05-27T12:27:05.054Z,390.30
2018-05-27T12:28:05.098Z,400.20
2018-05-27T12:29:05.154Z,488.70